createdAt,value
2022-09-18T00:00:38.955Z,10.60
2022-09-18T00:02:40.862Z,10.50
2022-09-18T00:04:42.546Z,10.50
2022-09-18T00:06:44.872Z,10.50
2022-09-18T00:08:46.545Z,10.40
2022-09-18T00:10:48.329Z,10.40
2022-09-18T00:12:50.028Z,10.50
2022-09-18T00:14:51.915Z,10.50
2022-09-18T00:16:53.715Z,10.40
2022-09-18T00:18:56.947Z,10.40
2022-09-18T00:21:05.875Z,10.40
2022-09-18T00:23:07.575Z,10.30
2022-09-18T00:25:09.465Z,10.40
2022-09-18T00:27:11.188Z,10.40
2022-09-18T00:29:13.300Z,10.30
2022-09-18T00:31:16.813Z,10.40
2022-09-18T00:33:18.435Z,10.50
2022-09-18T00:35:20.286Z,10.50
2022-09-18T00:37:22.050Z,10.50
2022-09-18T00:39:23.884Z,10.50
2022-09-18T00:41:26.879Z,10.50
2022-09-18T00:43:29.508Z,10.50
2022-09-18T00:45:31.140Z,10.50
2022-09-18T00:47:35.300Z,10.50
2022-09-18T00:49:42.675Z,10.40
2022-09-18T00:51:45.991Z,10.50
2022-09-18T00:53:51.648Z,10.50
2022-09-18T00:55:53.255Z,10.40
2022-09-18T00:57:56.963Z,10.40
2022-09-18T01:00:01.056Z,10.30
2022-09-18T01:02:03.038Z,10.30
2022-09-18T01:04:06.104Z,10.30
2022-09-18T01:06:15.903Z,10.40
2022-09-18T01:08:29.446Z,10.40
2022-09-18T01:10:31.074Z,10.60
2022-09-18T01:12:51.621Z,10.50
2022-09-18T01:15:12.624Z,10.50
2022-09-18T01:17:17.183Z,10.50
2022-09-18T01:19:21.909Z,10.50
2022-09-18T01:21:30.197Z,10.60
2022-09-18T01:23:43.800Z,10.50
2022-09-18T01:25:45.405Z,10.50
2022-09-18T01:27:52.268Z,10.50
2022-09-18T01:30:05.801Z,10.50
2022-09-18T01:32:09.526Z,10.60
2022-09-18T01:34:18.387Z,10.60
2022-09-18T01:36:21.555Z,10.50
2022-09-18T01:38:34.607Z,10.50
2022-09-18T01:40:46.319Z,10.50
2022-09-18T01:42:49.679Z,10.50
2022-09-18T01:44:54.174Z,10.50
2022-09-18T01:46:57.457Z,10.60
2022-09-18T01:49:06.916Z,10.50
2022-09-18T01:51:20.263Z,10.60
2022-09-18T01:53:28.691Z,10.60
2022-09-18T01:55:30.568Z,10.60
2022-09-18T01:57:46.483Z,10.50
2022-09-18T01:59:50.782Z,10.50
2022-09-18T02:01:53.950Z,10.50
2022-09-18T02:03:58.515Z,10.50
2022-09-18T02:06:19.230Z,10.50
2022-09-18T02:08:20.757Z,10.50
2022-09-18T02:10:23.185Z,10.60
2022-09-18T02:12:27.180Z,10.50
2022-09-18T02:14:32.577Z,10.50
2022-09-18T02:16:45.148Z,10.50
2022-09-18T02:18:49.462Z,10.50
2022-09-18T02:20:51.941Z,10.50
2022-09-18T02:22:55.671Z,10.50
2022-09-18T02:24:59.679Z,10.50
2022-09-18T02:27:03.035Z,10.40
2022-09-18T02:29:06.440Z,10.40
2022-09-18T02:31:08.146Z,10.30
2022-09-18T02:33:42.330Z,10.40
2022-09-18T02:35:46.012Z,10.30
2022-09-18T02:37:53.804Z,10.40
2022-09-18T02:40:17.526Z,10.40
2022-09-18T02:42:25.029Z,10.40
2022-09-18T02:44:35.665Z,10.50
2022-09-18T02:46:38.387Z,10.50
2022-09-18T02:48:55.582Z,10.50
2022-09-18T02:51:20.441Z,10.40
2022-09-18T02:53:30.596Z,10.40
2022-09-18T02:55:46.754Z,10.50
2022-09-18T02:57:52.144Z,10.50
2022-09-18T02:59:55.857Z,10.50
2022-09-18T03:01:58.340Z,10.50
2022-09-18T03:04:09.757Z,10.50
2022-09-18T03:06:11.396Z,10.50
2022-09-18T03:08:13.043Z,10.50
2022-09-18T03:10:14.706Z,10.50
2022-09-18T03:12:16.418Z,10.50
2022-09-18T03:14:18.060Z,10.50
2022-09-18T03:16:19.695Z,10.50
2022-09-18T03:18:21.433Z,10.50
2022-09-18T03:20:23.068Z,10.50
2022-09-18T03:22:24.654Z,10.50
2022-09-18T03:24:27.596Z,10.40
2022-09-18T03:26:29.192Z,10.40
2022-09-18T03:28:31.806Z,10.50
2022-09-18T03:30:33.594Z,10.40
2022-09-18T03:32:35.215Z,10.40
2022-09-18T03:34:36.830Z,10.40
2022-09-18T03:36:38.587Z,10.40
2022-09-18T03:38:41.106Z,10.40
2022-09-18T03:40:47.481Z,10.40
2022-09-18T03:42:50.910Z,10.30
2022-09-18T03:44:52.914Z,10.40
2022-09-18T03:46:54.535Z,10.40
2022-09-18T03:48:56.325Z,10.40
2022-09-18T03:50:58.120Z,10.30
2022-09-18T03:52:59.781Z,10.30
2022-09-18T03:55:01.372Z,10.30
2022-09-18T03:57:03.054Z,10.40
2022-09-18T03:59:04.779Z,10.40
2022-09-18T04:01:06.934Z,10.40
2022-09-18T04:03:08.886Z,10.40
2022-09-18T04:05:10.935Z,10.40
2022-09-18T04:07:12.568Z,10.40
2022-09-18T04:09:14.197Z,10.40
2022-09-18T04:11:15.830Z,10.40
2022-09-18T04:13:17.575Z,10.40
2022-09-18T04:15:19.251Z,10.40
2022-09-18T04:17:21.115Z,10.30
2022-09-18T04:19:22.719Z,10.40
2022-09-18T04:21:24.420Z,10.40
2022-09-18T04:23:26.126Z,10.40
2022-09-18T04:25:27.878Z,10.40
2022-09-18T04:27:29.650Z,10.40
2022-09-18T04:29:32.717Z,10.40
2022-09-18T04:31:34.359Z,10.40
2022-09-18T04:33:36.008Z,10.40
2022-09-18T04:35:37.776Z,10.40
2022-09-18T04:37:39.470Z,10.40
2022-09-18T04:39:41.204Z,10.40
2022-09-18T04:41:45.425Z,10.40
2022-09-18T04:43:47.047Z,10.40
2022-09-18T04:45:49.743Z,10.40
2022-09-18T04:47:51.352Z,10.30
2022-09-18T04:49:53.974Z,10.40
2022-09-18T04:51:55.675Z,10.40
2022-09-18T04:53:57.454Z,10.40
2022-09-18T04:56:00.923Z,10.40
2022-09-18T04:58:02.612Z,10.40
2022-09-18T05:00:04.942Z,10.40
2022-09-18T05:02:06.575Z,10.40
2022-09-18T05:04:08.478Z,10.40
2022-09-18T05:06:10.120Z,10.40
2022-09-18T05:08:11.782Z,10.40
2022-09-18T05:10:13.388Z,10.40
2022-09-18T05:12:14.948Z,10.40
2022-09-18T05:14:16.643Z,10.50
2022-09-18T05:16:19.024Z,10.30
2022-09-18T05:18:20.832Z,10.40
2022-09-18T05:20:22.666Z,10.40
2022-09-18T05:22:24.558Z,10.40
2022-09-18T05:24:26.224Z,10.40
2022-09-18T05:26:28.703Z,10.50
2022-09-18T05:28:30.288Z,10.50
2022-09-18T05:30:32.078Z,10.40
2022-09-18T05:32:33.732Z,10.40
2022-09-18T05:34:35.326Z,10.40
2022-09-18T05:36:37.006Z,10.30
2022-09-18T05:38:38.589Z,10.40
2022-09-18T05:40:40.523Z,10.40
2022-09-18T05:42:46.644Z,10.40
2022-09-18T05:44:48.263Z,10.40
2022-09-18T05:46:49.934Z,10.40
2022-09-18T05:48:52.452Z,10.30
2022-09-18T05:50:54.091Z,10.30
2022-09-18T05:53:02.845Z,10.40
2022-09-18T05:55:04.523Z,10.40
2022-09-18T05:57:06.302Z,10.40
2022-09-18T05:59:07.915Z,10.40
2022-09-18T06:01:09.700Z,10.40
2022-09-18T06:03:12.415Z,10.50
2022-09-18T06:05:14.068Z,10.40
2022-09-18T06:07:17.488Z,10.40
2022-09-18T06:09:19.119Z,10.40
2022-09-18T06:11:20.708Z,10.50
2022-09-18T06:13:22.288Z,10.40
2022-09-18T06:15:23.907Z,10.40
2022-09-18T06:17:25.503Z,10.50
2022-09-18T06:19:27.147Z,10.40
2022-09-18T06:21:28.838Z,10.50
2022-09-18T06:23:31.007Z,10.40
2022-09-18T06:25:32.696Z,10.50
2022-09-18T06:27:34.304Z,10.50
2022-09-18T06:29:35.989Z,10.50
2022-09-18T06:31:37.629Z,10.40
2022-09-18T06:33:39.370Z,10.40
2022-09-18T06:35:42.485Z,10.40
2022-09-18T06:37:44.068Z,10.40
2022-09-18T06:39:46.814Z,10.40
2022-09-18T06:41:49.613Z,10.40
2022-09-18T06:43:53.027Z,10.50
2022-09-18T06:45:56.821Z,10.60
2022-09-18T06:48:04.792Z,10.50
2022-09-18T06:50:07.556Z,10.60
2022-09-18T06:52:09.128Z,10.50
2022-09-18T06:54:10.991Z,10.60
2022-09-18T06:56:12.608Z,10.60
2022-09-18T06:58:15.140Z,10.50
2022-09-18T07:00:16.807Z,10.60
2022-09-18T07:02:19.704Z,10.60
2022-09-18T07:04:21.532Z,10.70
2022-09-18T07:06:23.433Z,10.50
2022-09-18T07:08:25.057Z,10.60
2022-09-18T07:10:27.144Z,10.60
2022-09-18T07:12:31.491Z,10.80
2022-09-18T07:14:33.065Z,10.90
2022-09-18T07:16:35.250Z,10.90
2022-09-18T07:18:36.926Z,10.90
2022-09-18T07:20:38.557Z,11.00
2022-09-18T07:22:44.951Z,11.00
2022-09-18T07:24:48.880Z,11.00
2022-09-18T07:26:50.522Z,11.10
2022-09-18T07:28:52.711Z,11.20
2022-09-18T07:30:54.334Z,11.30
2022-09-18T07:32:56.103Z,11.20
2022-09-18T07:34:57.741Z,11.10
2022-09-18T07:36:59.357Z,11.10
2022-09-18T07:39:01.537Z,11.20
2022-09-18T07:41:05.489Z,11.30
2022-09-18T07:43:08.509Z,11.20
2022-09-18T07:45:10.179Z,11.20
2022-09-18T07:47:12.474Z,11.20
2022-09-18T07:49:14.117Z,11.30
2022-09-18T07:51:15.839Z,11.30
2022-09-18T07:53:18.590Z,11.30
2022-09-18T07:55:21.171Z,11.20
2022-09-18T07:57:23.249Z,11.20
2022-09-18T07:59:24.825Z,11.20
2022-09-18T08:01:26.568Z,11.10
2022-09-18T08:03:28.390Z,11.10
2022-09-18T08:05:30.364Z,11.10
2022-09-18T08:07:31.984Z,11.20
2022-09-18T08:09:33.620Z,11.30
2022-09-18T08:11:35.216Z,11.30
2022-09-18T08:13:36.786Z,11.30
2022-09-18T08:15:42.312Z,11.30
2022-09-18T08:17:45.578Z,11.30
2022-09-18T08:19:47.407Z,11.30
2022-09-18T08:21:51.470Z,11.30
2022-09-18T08:23:56.094Z,11.40
2022-09-18T08:26:01.493Z,11.30
2022-09-18T08:28:04.268Z,11.40
2022-09-18T08:30:10.057Z,11.50
2022-09-18T08:32:11.676Z,11.50
2022-09-18T08:34:13.999Z,11.50
2022-09-18T08:36:29.178Z,11.50
2022-09-18T08:38:30.933Z,11.50
2022-09-18T08:40:32.517Z,11.50
2022-09-18T08:42:34.191Z,11.60
2022-09-18T08:44:45.408Z,11.70
2022-09-18T08:46:48.310Z,11.70
2022-09-18T08:49:05.507Z,11.60
2022-09-18T08:51:41.734Z,11.60
2022-09-18T08:53:44.961Z,11.60
2022-09-18T08:56:10.717Z,11.60
2022-09-18T09:01:57.145Z,11.60
2022-09-18T09:10:42.773Z,11.70
2022-09-18T09:20:23.562Z,11.80
2022-09-18T09:39:31.345Z,12.00
2022-09-18T09:42:27.350Z,12.00
2022-09-18T09:56:09.743Z,12.30
2022-09-18T10:10:30.228Z,12.40
2022-09-18T10:12:57.386Z,12.50
2022-09-18T10:18:05.315Z,12.60
2022-09-18T10:20:22.415Z,12.80
2022-09-18T10:22:52.307Z,12.80
2022-09-18T10:27:39.225Z,13.20
2022-09-18T10:29:49.785Z,13.20
2022-09-18T10:32:02.636Z,13.20
2022-09-18T10:34:52.726Z,13.30
2022-09-18T10:36:55.273Z,13.40
2022-09-18T10:39:38.530Z,13.30
2022-09-18T10:51:21.585Z,13.80
2022-09-18T10:53:55.184Z,13.90
2022-09-18T10:56:02.713Z,14.10
2022-09-18T10:58:13.513Z,14.30
2022-09-18T11:00:20.891Z,14.30
2022-09-18T11:02:24.419Z,14.20
2022-09-18T11:04:27.469Z,14.20
2022-09-18T11:06:31.210Z,14.20
2022-09-18T11:08:37.295Z,14.30
2022-09-18T11:10:39.115Z,14.40
2022-09-18T11:12:46.569Z,14.60
2022-09-18T11:14:58.820Z,14.70
2022-09-18T11:17:01.600Z,14.80
2022-09-18T11:19:07.643Z,15.10
2022-09-18T11:21:09.435Z,15.10
2022-09-18T11:23:23.276Z,15.00
2022-09-18T11:25:28.667Z,15.10
2022-09-18T11:27:43.378Z,14.70
2022-09-18T11:29:45.005Z,14.60
2022-09-18T11:31:49.527Z,14.60
2022-09-18T11:33:54.627Z,14.60
2022-09-18T11:35:59.556Z,14.60
2022-09-18T11:38:06.341Z,14.80
2022-09-18T11:40:26.610Z,14.80
2022-09-18T11:42:29.156Z,14.60
2022-09-18T11:44:34.431Z,14.40
2022-09-18T11:46:38.829Z,14.50
2022-09-18T11:48:43.206Z,14.80
2022-09-18T11:50:45.269Z,16.40
2022-09-18T11:52:49.255Z,16.30
2022-09-18T11:54:55.429Z,15.80
2022-09-18T11:56:59.696Z,15.40
2022-09-18T11:59:04.923Z,15.80
2022-09-18T12:01:24.850Z,16.60
2022-09-18T12:03:31.585Z,16.10
2022-09-18T12:05:33.186Z,15.90
2022-09-18T12:07:42.531Z,15.60
2022-09-18T12:09:56.310Z,16.10
2022-09-18T12:12:01.486Z,16.90
2022-09-18T12:14:09.517Z,17.20
2022-09-18T12:16:14.047Z,16.90
2022-09-18T12:18:21.774Z,16.20
2022-09-18T12:20:25.863Z,16.10
2022-09-18T12:22:27.415Z,16.60
2022-09-18T12:24:29.037Z,16.90
2022-09-18T12:26:50.917Z,17.70
2022-09-18T12:28:58.445Z,16.70
2022-09-18T12:31:10.458Z,15.70
2022-09-18T12:33:22.370Z,15.50
2022-09-18T12:35:36.086Z,15.30
2022-09-18T12:37:51.798Z,15.30
2022-09-18T12:40:06.903Z,15.30
2022-09-18T12:42:14.527Z,15.40
2022-09-18T12:44:35.111Z,16.10
2022-09-18T12:46:43.094Z,16.50
2022-09-18T12:49:01.875Z,16.10
2022-09-18T12:51:07.033Z,15.70
2022-09-18T12:53:14.919Z,15.50
2022-09-18T12:55:25.864Z,15.20
2022-09-18T12:57:46.092Z,15.30
2022-09-18T12:59:54.146Z,15.30
2022-09-18T13:02:18.598Z,15.50
2022-09-18T13:04:20.179Z,15.60
2022-09-18T13:06:29.342Z,15.60
2022-09-18T13:08:40.646Z,15.60
2022-09-18T13:10:44.101Z,15.60
2022-09-18T13:12:45.676Z,15.50
2022-09-18T13:14:50.551Z,15.40
2022-09-18T13:16:57.895Z,15.50
2022-09-18T13:19:03.676Z,15.50
2022-09-18T13:21:25.018Z,15.30
2022-09-18T13:23:31.691Z,15.30
2022-09-18T13:25:35.202Z,15.30
2022-09-18T13:27:36.913Z,15.30
2022-09-18T13:29:50.502Z,15.30
2022-09-18T13:31:53.555Z,15.40
2022-09-18T13:33:59.507Z,15.50
2022-09-18T13:36:01.292Z,15.50
2022-09-18T13:38:08.773Z,15.50
2022-09-18T13:40:26.417Z,15.50
2022-09-18T13:42:28.018Z,15.40
2022-09-18T13:44:31.205Z,15.30
2022-09-18T13:46:35.463Z,15.40
2022-09-18T13:48:40.130Z,15.40
2022-09-18T13:51:08.227Z,15.30
2022-09-18T13:53:28.890Z,15.20
2022-09-18T13:55:37.618Z,15.10
2022-09-18T13:57:40.132Z,15.00
2022-09-18T13:59:50.577Z,15.00
2022-09-18T14:01:55.830Z,15.00
2022-09-18T14:03:58.856Z,15.00
2022-09-18T14:06:20.378Z,14.90
2022-09-18T14:08:22.437Z,14.90
2022-09-18T14:10:25.957Z,14.90
2022-09-18T14:12:29.109Z,14.90
2022-09-18T14:14:30.819Z,14.80
2022-09-18T14:16:38.718Z,14.80
2022-09-18T14:18:43.467Z,14.80
2022-09-18T14:20:51.127Z,14.80
2022-09-18T14:22:52.742Z,14.80
2022-09-18T14:24:56.319Z,14.80
2022-09-18T14:26:59.533Z,14.80
2022-09-18T14:29:01.153Z,14.90
2022-09-18T14:31:17.135Z,15.00
2022-09-18T14:33:19.573Z,14.90
2022-09-18T14:35:34.319Z,15.00
2022-09-18T14:37:36.174Z,14.90
2022-09-18T14:39:37.950Z,15.00
2022-09-18T14:41:39.763Z,14.90
2022-09-18T14:43:47.289Z,15.00
2022-09-18T14:45:49.800Z,15.00
2022-09-18T14:47:51.559Z,15.00
2022-09-18T14:49:53.483Z,14.90
2022-09-18T14:52:04.081Z,14.90
2022-09-18T14:54:16.012Z,14.90
2022-09-18T14:56:19.980Z,14.90
2022-09-18T14:58:22.037Z,14.90
2022-09-18T15:00:25.483Z,14.90
2022-09-18T15:02:34.067Z,14.90
2022-09-18T15:04:36.659Z,14.80
2022-09-18T15:06:38.240Z,14.70
2022-09-18T15:08:42.824Z,14.70
2022-09-18T15:10:46.188Z,14.70
2022-09-18T15:12:48.110Z,14.70
2022-09-18T15:14:49.753Z,14.70
2022-09-18T15:16:55.505Z,14.70
2022-09-18T15:18:58.296Z,14.60
2022-09-18T15:21:01.787Z,14.60
2022-09-18T15:23:17.209Z,14.60
2022-09-18T15:25:21.763Z,14.60
2022-09-18T15:27:23.661Z,14.50
2022-09-18T15:29:31.058Z,14.50
2022-09-18T15:31:33.744Z,14.50
2022-09-18T15:33:36.638Z,14.50
2022-09-18T15:35:38.796Z,14.50
2022-09-18T15:37:50.623Z,14.40
2022-09-18T15:40:21.401Z,14.40
2022-09-18T15:42:33.772Z,14.40
2022-09-18T15:44:35.679Z,14.40
2022-09-18T15:46:37.527Z,14.40
2022-09-18T15:48:39.185Z,14.40
2022-09-18T15:50:40.830Z,14.40
2022-09-18T15:52:42.488Z,14.40
2022-09-18T15:55:00.952Z,14.40
2022-09-18T15:57:02.640Z,14.30
2022-09-18T15:59:06.384Z,14.30
2022-09-18T16:01:17.234Z,14.20
2022-09-18T16:03:18.968Z,14.20
2022-09-18T16:05:21.439Z,14.30
2022-09-18T16:07:24.384Z,14.20
2022-09-18T16:09:46.381Z,14.20
2022-09-18T16:11:48.066Z,14.10
2022-09-18T16:13:50.280Z,14.10
2022-09-18T16:16:13.462Z,14.20
2022-09-18T16:18:15.867Z,14.10
2022-09-18T16:20:34.395Z,14.10
2022-09-18T16:22:40.272Z,14.10
2022-09-18T16:24:41.856Z,14.10
2022-09-18T16:26:44.149Z,14.10
2022-09-18T16:28:47.389Z,14.10
2022-09-18T16:30:49.019Z,14.10
2022-09-18T16:32:54.314Z,14.10
2022-09-18T16:34:55.892Z,14.10
2022-09-18T16:36:57.543Z,14.00
2022-09-18T16:39:01.369Z,14.00
2022-09-18T16:41:03.055Z,14.00
2022-09-18T16:43:04.616Z,14.00
2022-09-18T16:45:07.493Z,14.00
2022-09-18T16:47:09.825Z,14.00
2022-09-18T16:49:12.446Z,13.90
2022-09-18T16:51:14.057Z,13.90
2022-09-18T16:53:15.828Z,13.80
2022-09-18T16:55:17.475Z,13.80
2022-09-18T16:57:20.621Z,13.70
2022-09-18T16:59:24.648Z,13.70
2022-09-18T17:01:28.079Z,13.70
2022-09-18T17:03:29.725Z,13.70
2022-09-18T17:05:31.418Z,13.70
2022-09-18T17:07:33.121Z,13.60
2022-09-18T17:09:34.985Z,13.60
2022-09-18T17:11:36.643Z,13.60
2022-09-18T17:13:38.375Z,13.50
2022-09-18T17:15:40.164Z,13.60
2022-09-18T17:17:41.822Z,13.60
2022-09-18T17:19:43.460Z,13.60
2022-09-18T17:21:45.172Z,13.60
2022-09-18T17:23:46.755Z,13.70
2022-09-18T17:25:48.393Z,13.70
2022-09-18T17:27:51.635Z,13.60
2022-09-18T17:29:53.246Z,13.60
2022-09-18T17:31:54.966Z,13.60
2022-09-18T17:33:56.805Z,13.60
2022-09-18T17:36:01.716Z,13.60
2022-09-18T17:38:03.740Z,13.60
2022-09-18T17:40:05.865Z,13.60
2022-09-18T17:42:07.790Z,13.60
2022-09-18T17:44:09.968Z,13.60
2022-09-18T17:46:12.516Z,13.50
2022-09-18T17:48:14.287Z,13.50
2022-09-18T17:50:18.993Z,13.60
2022-09-18T17:52:20.601Z,13.50
2022-09-18T17:54:22.708Z,13.50
2022-09-18T17:56:29.778Z,13.50
2022-09-18T17:58:32.253Z,13.50
2022-09-18T18:00:33.866Z,13.60
2022-09-18T18:02:35.907Z,13.50
2022-09-18T18:04:37.880Z,13.50
2022-09-18T18:06:39.850Z,13.50
2022-09-18T18:08:41.515Z,13.40
2022-09-18T18:10:43.272Z,13.40
2022-09-18T18:12:45.364Z,13.40
2022-09-18T18:14:46.978Z,13.40
2022-09-18T18:16:52.384Z,13.40
2022-09-18T18:18:55.583Z,13.40
2022-09-18T18:20:57.161Z,13.40
2022-09-18T18:22:58.719Z,13.40
2022-09-18T18:25:01.382Z,13.40
2022-09-18T18:27:04.446Z,13.50
2022-09-18T18:29:08.411Z,13.50
2022-09-18T18:31:12.290Z,13.50
2022-09-18T18:33:14.805Z,13.60
2022-09-18T18:35:16.693Z,13.60
2022-09-18T18:37:19.664Z,13.60
2022-09-18T18:39:23.453Z,13.50
2022-09-18T18:41:26.226Z,13.40
2022-09-18T18:43:28.842Z,13.40
2022-09-18T18:45:34.113Z,13.50
2022-09-18T18:47:36.149Z,13.60
2022-09-18T18:49:38.152Z,13.50
2022-09-18T18:51:47.222Z,13.50
2022-09-18T18:53:48.919Z,13.50
2022-09-18T18:55:51.507Z,13.60
2022-09-18T18:57:53.093Z,13.50
2022-09-18T18:59:57.279Z,13.50
2022-09-18T19:01:59.185Z,13.50
2022-09-18T19:04:02.650Z,13.50
2022-09-18T19:06:04.451Z,13.50
2022-09-18T19:08:07.029Z,13.50
2022-09-18T19:10:08.897Z,13.50
2022-09-18T19:12:10.783Z,13.50
2022-09-18T19:14:14.403Z,13.40
2022-09-18T19:16:16.123Z,13.40
2022-09-18T19:18:18.562Z,13.40
2022-09-18T19:20:21.019Z,13.50
2022-09-18T19:22:22.599Z,13.40
2022-09-18T19:24:26.377Z,13.50
2022-09-18T19:26:28.757Z,13.50
2022-09-18T19:28:30.457Z,13.50
2022-09-18T19:30:35.672Z,13.50
2022-09-18T19:32:39.327Z,13.40
2022-09-18T19:34:41.139Z,13.50
2022-09-18T19:36:46.886Z,13.40
2022-09-18T19:38:52.876Z,13.40
2022-09-18T19:40:55.803Z,13.30
2022-09-18T19:42:59.907Z,13.40
2022-09-18T19:45:03.338Z,13.40
2022-09-18T19:47:17.297Z,13.30
2022-09-18T19:49:25.190Z,13.30
2022-09-18T19:51:27.661Z,13.30
2022-09-18T19:53:29.276Z,13.40
2022-09-18T19:55:30.877Z,13.40
2022-09-18T19:57:32.493Z,13.50
2022-09-18T19:59:34.051Z,13.50
2022-09-18T20:01:35.673Z,13.80
2022-09-18T20:03:37.795Z,13.80
2022-09-18T20:05:40.114Z,13.90
2022-09-18T20:07:41.837Z,13.80
2022-09-18T20:09:43.472Z,13.70
2022-09-18T20:11:48.164Z,13.70
2022-09-18T20:13:50.923Z,13.70
2022-09-18T20:16:06.534Z,13.60
2022-09-18T20:18:08.451Z,13.50
2022-09-18T20:20:15.668Z,13.40
2022-09-18T20:22:18.556Z,13.40
2022-09-18T20:24:20.582Z,13.30
2022-09-18T20:26:22.346Z,13.20
2022-09-18T20:28:24.331Z,13.20
2022-09-18T20:30:26.639Z,13.10
2022-09-18T20:32:28.431Z,12.90
2022-09-18T20:34:30.449Z,12.90
2022-09-18T20:36:32.465Z,12.80
2022-09-18T20:38:35.457Z,12.70
2022-09-18T20:40:38.439Z,12.80
2022-09-18T20:42:40.179Z,12.80
2022-09-18T20:44:42.136Z,12.70
2022-09-18T20:46:43.914Z,12.60
2022-09-18T20:48:49.666Z,12.60
2022-09-18T20:50:51.484Z,12.50
2022-09-18T20:52:53.096Z,12.50
2022-09-18T20:54:54.690Z,12.50
2022-09-18T20:56:57.681Z,12.40
2022-09-18T20:59:04.685Z,12.30
2022-09-18T21:01:08.317Z,12.20
2022-09-18T21:03:10.036Z,12.20
2022-09-18T21:05:14.652Z,12.20
2022-09-18T21:07:16.291Z,12.10
2022-09-18T21:09:17.924Z,12.00
2022-09-18T21:11:22.883Z,12.00
2022-09-18T21:13:25.926Z,12.00
2022-09-18T21:15:28.620Z,12.00
2022-09-18T21:17:31.393Z,12.00
2022-09-18T21:19:34.204Z,12.00
2022-09-18T21:21:35.837Z,12.00
2022-09-18T21:23:56.454Z,11.90
2022-09-18T21:25:58.211Z,11.90
2022-09-18T21:27:59.880Z,11.80
2022-09-18T21:30:01.486Z,11.80
2022-09-18T21:32:03.209Z,11.70
2022-09-18T21:34:05.257Z,11.70
2022-09-18T21:36:07.155Z,11.60
2022-09-18T21:38:12.982Z,11.60
2022-09-18T21:40:14.800Z,11.70
2022-09-18T21:42:16.735Z,11.70
2022-09-18T21:44:23.466Z,11.80
2022-09-18T21:46:25.266Z,11.70
2022-09-18T21:48:26.948Z,11.60
2022-09-18T21:50:28.535Z,11.70
2022-09-18T21:52:30.120Z,11.70
2022-09-18T21:54:34.490Z,11.80
2022-09-18T21:56:36.088Z,11.90
2022-09-18T21:58:40.604Z,11.90
2022-09-18T22:00:42.391Z,11.90
2022-09-18T22:02:43.995Z,11.80
2022-09-18T22:04:46.084Z,11.80
2022-09-18T22:06:47.916Z,11.80
2022-09-18T22:08:50.853Z,11.70
2022-09-18T22:10:52.406Z,11.80
2022-09-18T22:12:54.164Z,11.70
2022-09-18T22:14:56.021Z,11.70
2022-09-18T22:17:01.249Z,11.70
2022-09-18T22:19:03.625Z,11.70
2022-09-18T22:21:05.787Z,11.70
2022-09-18T22:23:07.348Z,11.70
2022-09-18T22:25:09.404Z,11.70
2022-09-18T22:27:11.208Z,11.70
2022-09-18T22:29:15.052Z,11.70
2022-09-18T22:31:16.774Z,11.70
2022-09-18T22:33:18.355Z,11.70
2022-09-18T22:35:20.343Z,11.70
2022-09-18T22:37:22.345Z,11.70
2022-09-18T22:39:24.316Z,11.70
2022-09-18T22:41:25.925Z,11.70
2022-09-18T22:43:27.494Z,11.70
2022-09-18T22:45:29.135Z,11.70
2022-09-18T22:47:30.732Z,11.70
2022-09-18T22:49:32.372Z,11.70
2022-09-18T22:51:34.291Z,11.70
2022-09-18T22:53:36.465Z,11.70
2022-09-18T22:55:38.041Z,11.70
2022-09-18T22:57:39.720Z,11.70
2022-09-18T22:59:41.282Z,11.70
2022-09-18T23:02:02.836Z,11.60
2022-09-18T23:04:05.215Z,11.70
2022-09-18T23:06:07.522Z,11.60
2022-09-18T23:08:09.119Z,11.60
2022-09-18T23:10:12.078Z,11.50
2022-09-18T23:12:13.670Z,11.50
2022-09-18T23:14:16.958Z,11.30
2022-09-18T23:16:19.083Z,11.20
2022-09-18T23:18:20.728Z,11.00
2022-09-18T23:20:22.339Z,10.80
2022-09-18T23:22:24.059Z,10.80
2022-09-18T23:24:25.926Z,10.70
2022-09-18T23:26:28.727Z,10.60
2022-09-18T23:28:34.197Z,10.60
2022-09-18T23:30:36.450Z,10.50
2022-09-18T23:32:38.060Z,10.50
2022-09-18T23:34:40.990Z,10.40
2022-09-18T23:36:44.192Z,10.20
2022-09-18T23:39:11.181Z,10.30
2022-09-18T23:41:13.803Z,10.10
2022-09-18T23:43:22.044Z,10.10
2022-09-18T23:45:29.394Z,10.10
2022-09-18T23:47:38.585Z,10.10
2022-09-18T23:49:40.590Z,10.10
2022-09-18T23:51:50.069Z,10.10
2022-09-18T23:54:01.908Z,9.90
2022-09-18T23:56:21.318Z,10.00
2022-09-18T23:58:33.452Z,9.90
